Time;durP1;ratioP1;P1;durP2;ratioP2;P2;SDS_P1;SDS_P2;PMS_P1;PMS_P2;Temp;Humidity;BMP_temperature;BMP_pressure;BME280_temperature;BME280_humidity;BME280_pressure;Samples;Min_cycle;Max_cycle;Signal;HPM_P1;HPM_P2
2022/02/01 00:02:52;;;;;;;12.60;4.90;;;;;;;20.70;28.94;99914.05;100919;1349;61346;-83
2022/02/01 00:06:23;;;;;;;12.30;5.10;;;;;;;20.70;29.00;99905.30;101594;1345;61276;-82
2022/02/01 00:09:00;;;;;;;;;;;;;;;;;;;;;
2022/02/01 00:37:05;;;;;;;8.40;4.70;;;;;;;20.70;29.04;99912.86;101540;1346;71785;-85
2022/02/01 00:40:12;;;;;;;10.30;4.80;;;;;;;20.70;28.98;99912.61;101608;1344;75027;-83
2022/02/01 00:43:31;;;;;;;;;;;;;;;;;;;;;
2022/02/01 00:46:24;;;;;;;9.80;4.90;;;;;;;20.71;29.02;99903.82;101737;1341;61241;-84
2022/02/01 00:49:34;;;;;;;11.40;5.00;;;;;;;20.71;28.94;99895.05;101830;1340;72784;-84
2022/02/01 00:52:29;;;;;;;10.60;5.00;;;;;;;20.71;29.00;99886.27;101860;1334;75148;-83
2022/02/01 00:55:18;;;;;;;9.50;5.00;;;;;;;20.71;28.94;99884.45;102455;1331;61329;-80
2022/02/01 00:58:27;;;;;;;11.60;4.80;;;;;;;20.71;29.01;99886.41;102414;1331;61319;-83
2022/02/01 01:01:31;;;;;;;10.00;4.60;;;;;;;20.71;28.96;99885.41;101720;1340;74769;-85
2022/02/01 01:04:47;;;;;;;;;;;;;;;;;;;;;
2022/02/01 01:07:52;;;;;;;11.00;4.70;;;;;;;20.72;28.96;99885.48;101578;1348;61411;-85
2022/02/01 01:10:55;;;;;;;10.70;5.10;;;;;;;20.71;29.04;99883.54;101696;1343;63149;-86
2022/02/01 01:44:47;;;;;;;8.30;4.50;;;;;;;20.71;29.01;99860.00;101746;1340;73731;-78
2022/02/01 01:55:08;;;;;;;10.00;5.10;;;;;;;20.71;29.01;99849.96;101879;1338;71637;-83
2022/02/01 01:58:04;;;;;;;;;;;;;;;;;;;;;
2022/02/01 02:01:11;;;;;;;10.10;5.00;;;;;;;20.71;29.03;99855.30;101743;1341;61465;-83
2022/02/01 02:04:16;;;;;;;;;;;;;;;;;;;;;
2022/02/01 02:07:13;;;;;;;9.10;4.60;;;;;;;20.72;28.96;99851.48;101726;1341;72793;-87
2022/02/01 02:10:03;;;;;;;10.90;5.20;;;;;;;20.72;28.99;99845.40;101753;1342;74899;-83
2022/02/01 02:16:34;;;;;;;;;;;;;;;;;;;;;
2022/02/01 02:19:33;;;;;;;10.90;4.80;;;;;;;20.73;29.00;99841.58;101785;1341;73986;-84
2022/02/01 02:22:43;;;;;;;9.70;4.90;;;;;;;20.74;28.99;99845.64;101734;1342;75080;-86
2022/02/01 02:25:54;;;;;;;10.80;5.30;;;;;;;20.73;28.96;99852.29;101468;1349;61385;-84
2022/02/01 02:28:53;;;;;;;11.20;5.30;;;;;;;20.73;29.02;99855.68;101459;1349;61363;-84
2022/02/01 02:32:03;;;;;;;9.60;4.70;;;;;;;20.73;28.90;99852.86;101504;1348;73990;-83
2022/02/01 02:35:17;;;;;;;9.50;4.90;;;;;;;20.73;29.04;99857.80;101454;1348;75441;-84
2022/02/01 02:38:40;;;;;;;6.50;3.30;;;;;;;20.74;29.07;99866.02;101212;1349;62468;-84
2022/02/01 02:45:15;;;;;;;11.10;5.30;;;;;;;20.73;29.00;99874.65;101520;1343;71670;-81
2022/02/01 02:48:21;;;;;;;11.90;5.40;;;;;;;20.73;29.03;99871.58;101861;1338;76192;-82
2022/02/01 02:51:28;;;;;;;;;;;;;;;;;;;;;
2022/02/01 02:54:59;;;;;;;;;;;;;;;;;;;;;
2022/02/01 02:57:59;;;;;;;11.30;4.80;;;;;;;20.73;29.00;99875.86;101704;1343;72756;-81
2022/02/01 03:01:05;;;;;;;9.90;5.30;;;;;;;20.74;29.00;99877.28;101968;1337;75335;-83
2022/02/01 03:03:58;;;;;;;11.30;5.30;;;;;;;20.74;28.98;99883.19;102455;1331;61492;-82
2022/02/01 03:06:44;;;;;;;9.20;5.10;;;;;;;20.74;28.98;99891.89;102057;1336;61361;-86
2022/02/01 03:09:58;;;;;;;11.20;5.10;;;;;;;20.73;29.00;99899.10;101821;1340;72796;-82
2022/02/01 03:13:12;;;;;;;12.70;5.30;;;;;;;20.73;29.06;99900.52;101848;1340;74958;-85
2022/02/01 03:16:24;;;;;;;;;;;;;;;;;;;;;
2022/02/01 03:19:59;;;;;;;;;;;;;;;;;;;;;
2022/02/01 03:23:12;;;;;;;10.50;5.00;;;;;;;20.73;28.96;99906.27;101825;1341;71632;-86
2022/02/01 03:26:12;;;;;;;;;;;;;;;;;;;;;
2022/02/01 03:29:18;;;;;;;9.30;5.20;;;;;;;20.73;29.01;99901.27;101656;1347;61674;-85
2022/02/01 03:32:09;;;;;;;12.00;5.30;;;;;;;20.73;29.01;99893.42;101843;1340;61358;-89
2022/02/01 03:34:35;;;;;;;11.10;5.40;;;;;;;20.74;28.99;99886.57;101860;1340;72954;-81
2022/02/01 03:37:26;;;;;;;13.40;5.50;;;;;;;20.74;29.00;99885.29;101875;1339;61359;-84
2022/02/01 03:40:38;;;;;;;11.50;5.70;;;;;;;20.74;28.95;99885.27;101881;1338;61587;-79
2022/02/01 03:43:43;;;;;;;10.20;6.10;;;;;;;20.73;29.06;99879.85;101773;1340;61687;-87
2022/02/01 03:47:01;;;;;;;12.50;5.50;;;;;;;20.73;29.01;99879.11;101781;1335;72732;-83
2022/02/01 03:50:13;;;;;;;9.60;5.40;;;;;;;20.73;29.01;99870.20;102006;1335;75689;-83
2022/02/01 03:53:25;;;;;;;16.40;5.70;;;;;;;20.73;29.01;99863.77;101697;1345;61271;-82
2022/02/01 03:56:36;;;;;;;13.40;5.40;;;;;;;20.72;29.15;99857.56;101721;1345;61764;-88
2022/02/01 03:59:33;;;;;;;9.70;5.60;;;;;;;20.73;28.98;99860.35;101578;1346;72928;-82
2022/02/01 04:02:30;;;;;;;;;;;;;;;;;;;;;
2022/02/01 04:05:40;;;;;;;10.30;5.50;;;;;;;20.73;29.03;99862.88;101534;1344;61415;-86
2022/02/01 04:08:36;;;;;;;;;;;;;;;;;;;;;
2022/02/01 04:11:49;;;;;;;11.10;5.50;;;;;;;20.73;28.96;99860.36;101513;1349;72928;-83
2022/02/01 04:15:20;;;;;;;10.10;5.40;;;;;;;20.72;29.01;99859.85;100837;1355;74252;-78
2022/02/01 04:18:01;;;;;;;;;;;;;;;;;;;;;
2022/02/01 04:21:04;;;;;;;11.20;5.70;;;;;;;20.73;29.04;99861.22;101216;1352;61391;-86
2022/02/01 04:23:53;;;;;;;12.00;5.70;;;;;;;20.73;29.02;99866.45;101397;1352;74086;-83
2022/02/01 04:27:18;;;;;;;11.20;6.10;;;;;;;20.72;28.90;99874.17;101230;1352;74972;-83
2022/02/01 04:30:26;;;;;;;11.50;5.90;;;;;;;20.72;29.00;99883.34;101515;1344;61411;-86
2022/02/01 04:33:23;;;;;;;10.80;5.50;;;;;;;20.72;28.94;99888.16;101669;1345;61349;-85
2022/02/01 04:36:17;;;;;;;12.30;5.80;;;;;;;20.71;28.97;99893.04;101576;1342;73991;-84
2022/02/01 04:39:12;;;;;;;11.50;5.70;;;;;;;20.71;28.88;99893.02;101710;1343;76363;-81
2022/02/01 04:42:48;;;;;;;13.20;5.80;;;;;;;20.72;28.96;99897.47;101720;1337;61384;-86
2022/02/01 04:45:56;;;;;;;8.80;5.00;;;;;;;20.71;28.85;99891.98;101647;1341;61309;-84
2022/02/01 04:48:57;;;;;;;13.10;5.90;;;;;;;20.71;28.79;99893.27;101769;1341;73752;-82
2022/02/01 04:52:05;;;;;;;15.00;6.90;;;;;;;20.70;28.82;99894.20;101907;1334;74802;-86
2022/02/01 04:55:07;;;;;;;16.40;6.50;;;;;;;20.67;29.28;99893.58;102124;1334;61557;-83
2022/02/01 04:58:35;;;;;;;15.30;6.60;;;;;;;20.64;29.61;99895.98;101809;1340;61294;-79
2022/02/01 05:01:48;;;;;;;;;;;;;;;;;;;;;
2022/02/01 05:04:55;;;;;;;21.30;7.50;;;;;;;20.51;30.25;99905.60;101410;1349;74965;-83
2022/02/01 05:07:50;;;;;;;35.10;7.70;;;;;;;20.44;30.61;99895.95;101017;1354;61441;-81
2022/02/01 05:10:47;;;;;;;78.10;11.20;;;;;;;20.39;30.93;99909.61;100244;1359;61380;-80
2022/02/01 05:16:34;;;;;;;;;;;;;;;;;;;;;
2022/02/01 05:22:31;;;;;;;29.50;9.60;;;;;;;20.06;30.11;99922.67;99783;1363;62047;-82
2022/02/01 05:25:46;;;;;;;;;;;;;;;19.99;29.59;99925.02;99855;1364;71643;-81
2022/02/01 05:28:30;;;;;;;;;;;;;;;;;;;;;
2022/02/01 05:31:28;;;;;;;;;;;;;;;;;;;;;
2022/02/01 05:34:27;;;;;;;21.10;9.40;;;;;;;19.85;29.44;99929.49;99745;1363;61726;-81
2022/02/01 05:37:45;;;;;;;20.10;9.10;;;;;;;19.83;29.10;99921.83;99838;1363;71814;-80
2022/02/01 05:40:47;;;;;;;17.50;9.20;;;;;;;19.80;28.85;99917.41;99996;1354;74704;-79
2022/02/01 05:43:42;;;;;;;20.20;9.30;;;;;;;19.77;28.72;99916.53;100908;1354;61500;-79
2022/02/01 05:46:14;;;;;;;20.80;10.20;;;;;;;19.74;28.54;99924.98;101199;1347;62405;-80
2022/02/01 05:48:43;;;;;;;22.50;9.80;;;;;;;19.72;28.26;99931.07;101191;1343;73221;-82
2022/02/01 05:51:54;;;;;;;;;;;;;;;;;;;;;
2022/02/01 05:54:21;;;;;;;22.80;11.00;;;;;;;19.64;27.71;99930.46;102313;1328;61563;-78
2022/02/01 05:56:47;;;;;;;21.90;11.00;;;;;;;19.60;27.53;99923.77;102150;1328;61362;-80
2022/02/01 05:59:13;;;;;;;18.20;8.60;;;;;;;19.57;27.04;99934.15;102093;1328;61514;-80
2022/02/01 06:01:39;;;;;;;17.70;8.60;;;;;;;19.53;27.07;99937.36;102312;1323;61317;-79
2022/02/01 06:04:15;;;;;;;20.90;9.70;;;;;;;19.51;27.03;99943.95;102859;1319;66469;-80
2022/02/01 06:06:41;;;;;;;19.50;10.10;;;;;;;19.47;26.78;99947.63;102967;1319;61539;-81
2022/02/01 06:09:09;;;;;;;23.20;10.30;;;;;;;19.45;26.68;99955.11;102555;1320;61384;-79
2022/02/01 06:11:55;;;;;;;20.70;10.00;;;;;;;19.45;26.54;99960.64;101923;1326;73483;-78
2022/02/01 06:14:25;;;;;;;19.90;9.80;;;;;;;19.46;26.53;99960.35;102123;1328;61346;-77
2022/02/01 06:17:17;;;;;;;21.00;9.50;;;;;;;19.50;26.48;99959.35;102218;1328;61480;-79
2022/02/01 06:19:47;;;;;;;23.40;9.80;;;;;;;19.53;26.44;99960.76;102160;1328;72973;-79
2022/02/01 06:22:13;;;;;;;20.20;9.70;;;;;;;19.57;26.26;99962.70;102174;1328;75951;-79
2022/02/01 06:24:42;;;;;;;22.10;9.50;;;;;;;19.62;26.22;99969.87;102258;1322;61812;-79
2022/02/01 06:27:08;;;;;;;20.50;10.00;;;;;;;19.67;26.15;99982.49;102349;1322;61630;-80
2022/02/01 06:29:34;;;;;;;16.60;9.30;;;;;;;19.72;25.98;99986.17;102306;1322;61586;-79
2022/02/01 06:32:28;;;;;;;17.40;9.40;;;;;;;19.77;25.93;99977.73;102494;1322;76433;-80
2022/02/01 06:35:03;;;;;;;18.90;9.10;;;;;;;19.83;25.95;99974.31;102361;1321;61597;-79
2022/02/01 06:37:36;;;;;;;21.20;9.00;;;;;;;19.87;25.93;99970.25;102384;1322;61528;-79
2022/02/01 06:40:12;;;;;;;23.00;9.30;;;;;;;19.92;25.86;99975.36;102350;1322;72943;-80
2022/02/01 06:42:41;;;;;;;20.10;9.20;;;;;;;19.97;26.01;99971.63;102189;1322;61283;-78
2022/02/01 06:45:09;;;;;;;20.10;9.00;;;;;;;20.01;26.06;99969.35;102380;1322;61742;-79
2022/02/01 06:47:35;;;;;;;17.70;9.30;;;;;;;20.04;26.15;99968.00;102321;1322;61317;-78
2022/02/01 06:50:01;;;;;;;18.00;8.40;;;;;;;20.07;26.20;99969.38;102881;1316;61265;-80
2022/02/01 06:52:29;;;;;;;20.70;8.50;;;;;;;20.10;26.27;99972.00;102909;1316;61437;-79
2022/02/01 06:55:03;;;;;;;17.10;8.40;;;;;;;20.14;26.38;99977.40;102832;1316;61688;-79
2022/02/01 06:57:49;;;;;;;18.80;8.90;;;;;;;20.15;26.40;99977.64;104045;1316;60308;-80
2022/02/01 07:00:14;;;;;;;22.00;9.60;;;;;;;20.14;26.34;99973.48;103168;1315;61357;-81
2022/02/01 07:02:40;;;;;;;18.00;9.00;;;;;;;20.11;26.38;99972.26;103141;1316;61525;-79
2022/02/01 07:05:06;;;;;;;18.00;8.90;;;;;;;20.10;26.30;99986.48;102991;1317;61519;-80
2022/02/01 07:07:34;;;;;;;27.70;8.80;;;;;;;20.09;26.29;99996.52;103046;1316;61425;-79
2022/02/01 07:10:00;;;;;;;21.40;8.90;;;;;;;20.10;26.25;100008.98;102767;1316;61242;-79
2022/02/01 07:12:49;;;;;;;18.50;8.70;;;;;;;20.12;26.30;100015.98;103113;1316;61517;-82
2022/02/01 07:15:22;;;;;;;17.30;8.40;;;;;;;20.14;26.19;100016.30;103067;1316;61324;-79
2022/02/01 07:18:04;;;;;;;16.50;8.70;;;;;;;20.17;26.09;100026.95;103270;1316;61536;-80
2022/02/01 07:20:31;;;;;;;16.70;8.40;;;;;;;20.20;26.07;100018.71;103268;1316;74023;-80
2022/02/01 07:23:11;;;;;;;17.10;8.10;;;;;;;20.23;26.03;100021.14;103333;1316;74629;-80
2022/02/01 07:25:45;;;;;;;18.30;8.40;;;;;;;20.25;26.03;100018.10;103410;1315;61427;-81
2022/02/01 07:28:37;;;;;;;19.00;8.00;;;;;;;20.28;25.92;100015.58;103129;1316;61824;-80
2022/02/01 07:31:03;;;;;;;18.10;8.40;;;;;;;20.32;25.96;100018.70;102465;1322;72901;-80
2022/02/01 07:34:03;;;;;;;16.40;8.30;;;;;;;20.34;25.98;100019.92;102712;1320;75664;-78
2022/02/01 07:36:38;;;;;;;14.30;7.80;;;;;;;20.37;25.95;100023.95;102751;1322;61329;-78
2022/02/01 07:39:08;;;;;;;16.80;8.10;;;;;;;20.40;26.00;100027.29;102669;1322;61303;-79
2022/02/01 07:41:43;;;;;;;13.00;7.30;;;;;;;20.42;25.93;100027.87;102596;1321;72764;-78
2022/02/01 07:44:15;;;;;;;15.40;7.70;;;;;;;20.43;26.03;100033.11;102640;1322;74722;-79
2022/02/01 07:46:50;;;;;;;15.40;7.40;;;;;;;20.46;25.96;100036.50;102800;1322;61460;-81
2022/02/01 07:49:36;;;;;;;15.10;7.70;;;;;;;20.48;25.98;100034.54;103117;1322;61641;-79
2022/02/01 07:52:02;;;;;;;13.80;7.70;;;;;;;20.50;25.89;100035.05;102958;1314;73786;-79
2022/02/01 07:54:28;;;;;;;15.80;7.30;;;;;;;20.51;25.99;100028.00;103187;1314;61472;-79
2022/02/01 07:56:53;;;;;;;22.20;8.00;;;;;;;20.51;26.14;100028.90;103214;1313;61274;-79
2022/02/01 07:59:22;;;;;;;21.10;8.40;;;;;;;20.46;26.00;100024.27;103069;1314;61308;-78
2022/02/01 08:01:49;;;;;;;16.30;7.80;;;;;;;20.39;25.94;100023.48;103219;1313;61287;-81
2022/02/01 08:04:14;;;;;;;17.10;7.70;;;;;;;20.34;25.83;100027.77;103236;1313;61392;-78
2022/02/01 08:06:43;;;;;;;16.10;7.30;;;;;;;20.33;25.90;100026.23;103135;1314;61274;-81
2022/02/01 08:09:36;;;;;;;18.00;7.10;;;;;;;20.36;25.79;100026.77;103684;1305;61658;-78
2022/02/01 08:12:12;;;;;;;16.30;7.00;;;;;;;20.37;25.95;100024.29;105204;1308;73603;-79
2022/02/01 08:17:30;;;;;;;19.30;8.20;;;;;;;20.42;25.92;100024.67;105426;1305;59328;-79
2022/02/01 08:22:36;;;;;;;12.40;6.30;;;;;;;20.49;25.90;100045.20;104009;1305;72965;-80
2022/02/01 08:25:10;;;;;;;18.20;7.40;;;;;;;20.52;25.72;100052.48;104031;1305;75484;-78
2022/02/01 08:27:36;;;;;;;19.80;7.50;;;;;;;20.53;25.78;100055.77;103887;1305;61440;-79
2022/02/01 08:30:22;;;;;;;16.40;6.70;;;;;;;20.54;25.85;100063.52;103961;1305;61571;-79
2022/02/01 08:32:57;;;;;;;15.40;6.40;;;;;;;20.56;25.96;100058.52;103974;1305;73113;-79
2022/02/01 08:35:23;;;;;;;13.80;6.70;;;;;;;20.57;25.97;100059.71;103930;1306;74512;-81
2022/02/01 08:37:49;;;;;;;16.80;6.60;;;;;;;20.58;26.08;100062.11;103810;1305;61198;-79
2022/02/01 08:40:18;;;;;;;17.50;6.60;;;;;;;20.59;26.18;100062.77;103910;1306;61391;-79
2022/02/01 08:42:49;;;;;;;13.40;6.50;;;;;;;20.60;26.14;100063.95;103911;1305;73742;-79
2022/02/01 08:45:21;;;;;;;16.70;6.80;;;;;;;20.58;26.11;100074.85;104090;1308;75795;-79
2022/02/01 08:47:47;;;;;;;16.70;6.80;;;;;;;20.54;26.46;100080.33;103975;1307;61573;-78
2022/02/01 08:50:17;;;;;;;17.80;7.20;;;;;;;20.48;26.20;100083.65;103613;1308;61325;-78
2022/02/01 08:52:47;;;;;;;20.80;8.40;;;;;;;20.41;25.91;100081.94;103610;1305;72601;-79
2022/02/01 08:55:32;;;;;;;20.70;7.90;;;;;;;20.18;25.45;100073.75;103576;1308;75794;-80
2022/02/01 08:57:57;;;;;;;28.30;7.60;;;;;;;20.04;25.48;100078.55;103885;1305;61564;-80
2022/02/01 09:00:23;;;;;;;31.70;7.30;;;;;;;20.03;25.66;100076.85;103684;1306;61337;-82
2022/02/01 09:02:49;;;;;;;23.40;7.20;;;;;;;20.06;26.07;100076.21;103673;1305;61611;-79
2022/02/01 09:05:15;;;;;;;25.20;7.40;;;;;;;20.13;26.39;100079.52;103676;1308;61367;-78
2022/02/01 09:07:46;;;;;;;18.20;7.10;;;;;;;20.18;26.43;100084.79;103748;1307;61449;-78
2022/02/01 09:10:20;;;;;;;27.00;7.70;;;;;;;20.24;26.62;100084.87;104024;1305;61617;-78
2022/02/01 09:12:46;;;;;;;19.70;7.20;;;;;;;20.28;26.93;100087.55;103760;1308;73852;-78
2022/02/01 09:15:15;;;;;;;23.30;6.80;;;;;;;20.32;26.93;100092.64;104032;1305;61267;-80
2022/02/01 09:18:05;;;;;;;23.20;7.40;;;;;;;20.36;27.03;100095.16;103940;1308;61177;-80
2022/02/01 09:20:30;;;;;;;16.60;6.20;;;;;;;20.40;27.15;100091.81;103972;1308;61514;-81
2022/02/01 09:23:20;;;;;;;23.50;6.20;;;;;;;20.43;27.27;100097.62;103957;1308;61262;-78
2022/02/01 09:25:58;;;;;;;;;;;;;;;;;;;;;
2022/02/01 09:28:52;;;;;;;19.70;7.00;;;;;;;20.50;27.68;100106.26;103712;1311;61269;-80
2022/02/01 09:31:19;;;;;;;14.80;6.60;;;;;;;20.50;27.51;100108.37;103751;1311;60589;-79
2022/02/01 09:33:57;;;;;;;19.60;6.80;;;;;;;20.50;27.50;100109.61;103662;1313;72799;-80
2022/02/01 09:36:26;;;;;;;18.70;6.80;;;;;;;20.51;27.45;100106.02;103620;1311;74678;-80
2022/02/01 09:38:54;;;;;;;18.60;7.20;;;;;;;20.51;27.31;100108.80;103708;1311;61427;-79
2022/02/01 09:41:40;;;;;;;16.10;6.50;;;;;;;20.52;27.46;100111.97;103747;1311;61309;-81
2022/02/01 09:44:06;;;;;;;17.90;6.90;;;;;;;20.52;27.42;100109.77;103668;1311;74790;-79
2022/02/01 09:46:48;;;;;;;19.00;6.80;;;;;;;20.53;27.22;100097.91;103515;1311;75755;-83
2022/02/01 09:49:19;;;;;;;15.10;6.60;;;;;;;20.54;27.28;100092.66;103905;1311;61296;-79
2022/02/01 09:51:48;;;;;;;19.70;7.30;;;;;;;20.55;27.15;100086.88;103945;1311;61264;-79
2022/02/01 09:54:14;;;;;;;22.00;8.60;;;;;;;20.54;26.78;100080.17;103343;1313;73620;-78
2022/02/01 09:56:42;;;;;;;21.60;8.70;;;;;;;20.44;26.53;100072.55;103252;1311;61296;-79
2022/02/01 09:59:15;;;;;;;24.60;10.80;;;;;;;20.32;26.24;100072.43;103376;1311;61369;-79
2022/02/01 10:01:55;;;;;;;28.10;9.30;;;;;;;20.18;26.15;100069.41;103233;1311;61200;-79
2022/02/01 10:04:28;;;;;;;18.20;9.20;;;;;;;20.08;26.21;100073.09;103467;1305;73390;-78
2022/02/01 10:07:04;;;;;;;25.70;9.30;;;;;;;20.03;26.04;100077.55;103707;1305;75466;-79
2022/02/01 10:09:30;;;;;;;23.40;9.30;;;;;;;20.01;26.07;100072.21;103973;1305;61501;-78
2022/02/01 10:12:02;;;;;;;24.20;8.70;;;;;;;20.01;26.01;100067.05;103865;1303;61587;-78
2022/02/01 10:14:41;;;;;;;25.90;8.70;;;;;;;20.04;26.04;100060.17;103859;1305;72034;-77
2022/02/01 10:17:09;;;;;;;29.00;9.20;;;;;;;20.09;26.26;100056.38;103420;1305;268118;-78
2022/02/01 10:19:47;;;;;;;22.50;8.40;;;;;;;20.12;26.34;100042.02;105127;1305;60400;-78
2022/02/01 10:22:13;;;;;;;18.50;7.60;;;;;;;20.17;26.51;100033.42;104183;1307;64466;-79
2022/02/01 10:24:41;;;;;;;22.70;8.20;;;;;;;20.22;26.51;100031.63;104032;1305;61169;-79
2022/02/01 10:27:18;;;;;;;17.70;7.90;;;;;;;20.27;26.45;100034.25;104118;1305;75911;-78
2022/02/01 10:30:01;;;;;;;19.50;7.80;;;;;;;20.31;26.77;100031.44;103801;1308;61334;-80
2022/02/01 10:32:44;;;;;;;16.60;7.30;;;;;;;20.35;26.84;100035.54;104836;1305;60536;-78
2022/02/01 10:35:22;;;;;;;16.90;7.30;;;;;;;20.38;26.79;100037.26;103963;1305;72767;-79
2022/02/01 10:38:10;;;;;;;15.80;7.40;;;;;;;20.41;26.75;100028.10;103951;1306;74591;-78
2022/02/01 10:40:37;;;;;;;19.30;7.60;;;;;;;20.42;26.95;100026.20;104105;1305;61215;-79
2022/02/01 10:43:04;;;;;;;18.00;7.00;;;;;;;20.45;27.29;100022.65;105240;1306;60478;-78
2022/02/01 10:45:41;;;;;;;21.00;7.50;;;;;;;20.48;27.74;100025.46;104365;1308;72611;-79
2022/02/01 10:48:12;;;;;;;16.90;7.30;;;;;;;20.51;27.82;100027.34;104214;1304;74942;-79
2022/02/01 10:50:37;;;;;;;26.40;7.00;;;;;;;20.53;28.02;100029.13;103785;1308;61182;-78
2022/02/01 10:53:03;;;;;;;18.10;7.30;;;;;;;20.51;27.97;100029.86;103704;1305;61371;-78
2022/02/01 10:55:29;;;;;;;18.00;7.30;;;;;;;20.40;27.78;100031.59;103769;1308;61250;-79
2022/02/01 10:57:55;;;;;;;23.30;8.20;;;;;;;20.23;27.70;100029.37;103735;1307;61411;-78
2022/02/01 11:00:21;;;;;;;17.40;7.40;;;;;;;20.15;27.69;100023.77;103784;1305;61398;-78
2022/02/01 11:02:47;;;;;;;23.80;7.60;;;;;;;20.04;27.73;100023.59;103724;1305;61239;-78
2022/02/01 11:05:18;;;;;;;18.40;7.20;;;;;;;19.97;27.46;100025.73;103775;1307;61278;-78
2022/02/01 11:07:43;;;;;;;17.80;6.90;;;;;;;19.96;27.32;100023.17;104845;1305;73292;-79
2022/02/01 11:10:10;;;;;;;18.70;7.20;;;;;;;19.97;27.39;100024.15;103925;1305;61717;-78
2022/02/01 11:12:38;;;;;;;17.30;6.90;;;;;;;20.01;27.56;100020.06;104171;1305;61539;-79
2022/02/01 11:15:05;;;;;;;15.40;7.30;;;;;;;20.06;27.66;100015.04;104994;1307;61855;-79
2022/02/01 11:17:45;;;;;;;22.80;7.30;;;;;;;20.09;27.78;100011.55;103703;1308;74207;-79
2022/02/01 11:20:19;;;;;;;15.30;7.30;;;;;;;20.13;27.76;100008.38;103781;1308;75245;-80
2022/02/01 11:22:53;;;;;;;23.10;7.30;;;;;;;20.16;27.79;100006.02;103925;1306;61685;-79
2022/02/01 11:25:35;;;;;;;25.20;7.40;;;;;;;20.19;27.69;100006.31;103996;1305;61301;-79
2022/02/01 11:30:35;;;;;;;20.40;7.40;;;;;;;20.24;27.63;100008.37;103806;1305;74858;-79
2022/02/01 11:33:05;;;;;;;15.40;6.80;;;;;;;20.27;27.55;100007.45;104093;1307;63322;-79
2022/02/01 11:35:31;;;;;;;20.90;6.90;;;;;;;20.31;27.63;100003.73;104265;1305;61275;-79
2022/02/01 11:38:06;;;;;;;17.20;6.80;;;;;;;20.33;27.74;100006.84;103957;1305;61302;-79
2022/02/01 11:40:42;;;;;;;20.70;7.20;;;;;;;20.29;27.59;100009.03;104102;1305;76919;-79
2022/02/01 11:43:18;;;;;;;15.10;6.40;;;;;;;20.25;27.39;100009.52;104124;1305;61179;-81
2022/02/01 11:46:00;;;;;;;18.00;6.90;;;;;;;20.22;27.44;100006.02;103964;1305;61239;-79
2022/02/01 11:48:32;;;;;;;17.80;7.30;;;;;;;20.19;27.34;100001.69;103985;1306;72903;-81
2022/02/01 11:51:06;;;;;;;16.80;7.10;;;;;;;20.16;27.07;99997.79;103797;1305;75999;-83
2022/02/01 11:53:42;;;;;;;18.00;6.20;;;;;;;20.07;26.55;99995.63;103555;1308;61199;-79
2022/02/01 11:56:11;;;;;;;16.10;6.20;;;;;;;19.96;26.25;99996.85;103809;1305;61557;-78
2022/02/01 11:58:41;;;;;;;15.50;6.50;;;;;;;19.90;26.24;99995.02;105187;1308;74938;-78
2022/02/01 12:01:37;;;;;;;18.90;6.60;;;;;;;19.83;26.16;99993.05;104469;1308;74694;-78
2022/02/01 12:04:06;;;;;;;13.70;6.30;;;;;;;19.84;26.37;99997.98;103834;1305;61288;-80
2022/02/01 12:06:43;;;;;;;;;;;;;;;19.88;26.15;100002.46;103811;1305;61226;-79
2022/02/01 12:09:12;;;;;;;14.30;5.80;;;;;;;19.82;26.26;100004.70;103933;1305;74171;-79
2022/02/01 12:11:39;;;;;;;;;;;;;;;19.80;26.25;100004.15;103938;1308;76025;-80
2022/02/01 12:14:06;;;;;;;12.30;5.10;;;;;;;19.74;26.33;100000.29;104111;1308;61241;-79
2022/02/01 12:16:33;;;;;;;16.60;5.70;;;;;;;19.75;26.13;100004.33;105256;1305;61003;-79
2022/02/01 12:19:06;;;;;;;14.10;5.50;;;;;;;19.74;26.08;100007.49;105279;1307;59711;-78
2022/02/01 12:21:59;;;;;;;16.50;5.10;;;;;;;19.64;25.77;100011.29;104064;1308;74126;-79
2022/02/01 12:24:27;;;;;;;13.10;5.40;;;;;;;19.55;25.86;100008.05;104201;1308;61237;-79
2022/02/01 12:26:56;;;;;;;16.50;5.60;;;;;;;19.55;25.94;100008.23;104046;1305;61432;-80
2022/02/01 12:29:42;;;;;;;16.00;6.00;;;;;;;19.51;25.95;100006.61;103947;1308;72703;-79
2022/02/01 12:32:12;;;;;;;18.00;5.30;;;;;;;19.40;25.72;100002.23;104219;1305;74918;-79
2022/02/01 12:35:10;;;;;;;14.20;5.40;;;;;;;19.28;25.81;100000.48;103974;1308;61466;-79
2022/02/01 12:38:17;;;;;;;;;;;;;;;;;;;;;
2022/02/01 12:41:16;;;;;;;18.30;5.50;;;;;;;19.36;26.13;100002.16;103819;1313;74227;-81
2022/02/01 12:47:02;;;;;;;12.50;4.90;;;;;;;19.45;26.14;100010.63;103279;1313;61219;-80
2022/02/01 12:49:34;;;;;;;16.50;4.90;;;;;;;19.43;25.88;100006.45;103887;1313;61198;-78
2022/02/01 12:52:27;;;;;;;14.50;5.10;;;;;;;19.38;26.00;100003.45;103488;1313;73614;-81
2022/02/01 12:55:15;;;;;;;16.20;4.80;;;;;;;19.36;25.74;100004.11;104794;1313;74856;-79
2022/02/01 12:57:43;;;;;;;10.00;4.50;;;;;;;19.35;25.76;100005.10;104719;1312;61697;-78
2022/02/01 13:00:14;;;;;;;15.40;4.90;;;;;;;19.38;25.75;100002.04;104732;1313;61695;-78
2022/02/01 13:03:06;;;;;;;10.60;4.30;;;;;;;19.41;25.66;100003.41;104752;1313;73840;-79
2022/02/01 13:05:32;;;;;;;13.20;4.50;;;;;;;19.41;25.31;100002.31;104202;1319;74803;-78
2022/02/01 13:15:52;;;;;;;14.70;5.20;;;;;;;19.34;24.66;100000.05;103187;1319;75126;-79
2022/02/01 13:20:04;;;;;;;10.80;4.50;;;;;;;19.36;24.46;100000.57;103267;1314;61163;-79
2022/02/01 13:21:42;;;;;;;15.10;5.10;;;;;;;19.39;24.32;99999.24;103655;1313;61378;-79
2022/02/01 13:24:47;;;;;;;11.00;4.30;;;;;;;19.45;24.21;100003.09;103542;1316;72621;-80
2022/02/01 13:27:56;;;;;;;11.30;4.40;;;;;;;19.53;24.39;100008.56;102409;1325;74083;-83
2022/02/01 13:30:44;;;;;;;8.80;4.20;;;;;;;19.60;24.38;100007.13;102347;1325;61321;-80
2022/02/01 13:33:23;;;;;;;9.60;4.40;;;;;;;19.64;24.45;100011.25;102808;1325;62257;-80
2022/02/01 13:36:06;;;;;;;11.20;4.70;;;;;;;19.69;24.29;100009.45;102492;1325;74011;-82
2022/02/01 13:39:02;;;;;;;10.90;4.40;;;;;;;19.72;24.35;100007.23;102493;1325;73915;-81
2022/02/01 13:41:36;;;;;;;10.10;4.50;;;;;;;19.77;24.45;100013.64;102405;1325;61239;-78
2022/02/01 13:44:31;;;;;;;12.20;4.60;;;;;;;19.81;24.52;100019.96;103046;1322;61416;-81
2022/02/01 13:47:48;;;;;;;11.50;4.10;;;;;;;19.86;24.51;100019.27;103040;1319;74348;-79
2022/02/01 13:50:55;;;;;;;8.90;4.40;;;;;;;19.90;24.58;100024.11;102986;1322;76022;-81
2022/02/01 13:54:06;;;;;;;;;;;;;;;19.95;24.71;100028.95;102813;1325;61322;-80
2022/02/01 13:56:54;;;;;;;10.20;4.30;;;;;;;19.95;24.81;100033.34;102702;1324;61470;-82
2022/02/01 14:00:03;;;;;;;9.90;4.70;;;;;;;20.00;24.96;100039.05;102699;1325;73857;-82
2022/02/01 14:02:57;;;;;;;11.20;4.50;;;;;;;20.01;24.91;100042.34;102467;1329;73864;-82
2022/02/01 14:06:54;;;;;;;13.90;4.60;;;;;;;20.05;25.25;100050.09;102860;1322;61577;-81
2022/02/01 14:10:04;;;;;;;12.00;4.10;;;;;;;20.06;25.30;100053.34;102572;1327;62191;-84
2022/02/01 14:26:43;;;;;;;15.70;9.80;;;;;;;20.14;25.89;100076.89;100340;1356;73904;-84
2022/02/01 14:36:02;;;;;;;19.70;10.90;;;;;;;20.16;26.00;100077.78;100698;1355;61469;-87
2022/02/01 14:43:16;;;;;;;;;;;;;;;;;;;;;
2022/02/01 14:45:59;;;;;;;20.20;11.50;;;;;;;20.17;25.85;100086.32;100386;1357;61562;-82
2022/02/01 14:49:12;;;;;;;18.90;11.70;;;;;;;20.18;26.01;100089.07;100936;1346;61462;-84
2022/02/01 14:52:04;;;;;;;;;;;;;;;;;;;;;
2022/02/01 14:55:22;;;;;;;16.70;11.10;;;;;;;20.20;25.92;100092.30;101734;1340;73480;-84
2022/02/01 15:14:48;;;;;;;;;;;;;;;;;;;;;
2022/02/01 15:17:59;;;;;;;16.20;9.40;;;;;;;20.25;26.38;100098.67;102770;1326;72551;-89
2022/02/01 15:21:05;;;;;;;16.70;8.70;;;;;;;20.26;26.52;100103.83;102762;1326;75961;-83
2022/02/01 15:24:20;;;;;;;16.00;8.60;;;;;;;20.27;26.44;100105.72;102048;1337;61087;-85
2022/02/01 15:27:10;;;;;;;16.60;8.20;;;;;;;20.27;26.57;100106.05;101790;1341;61433;-80
2022/02/01 15:29:59;;;;;;;13.80;8.40;;;;;;;20.29;26.57;100110.42;101728;1341;72889;-81
2022/02/01 15:32:56;;;;;;;;;;;;;;;;;;;;;